createdAt,value
2018-06-15T00:00:22.788Z,98.00
2018-06-15T00:02:56.496Z,98.10
2018-06-15T00:05:25.056Z,98.20
2018-06-15T00:07:53.462Z,98.40
2018-06-15T00:10:21.895Z,98.70
2018-06-15T00:12:50.371Z,98.60
2018-06-15T00:15:19.323Z,98.70
2018-06-15T00:17:47.736Z,98.50
2018-06-15T00:20:16.178Z,98.70
2018-06-15T00:22:44.615Z,98.70
2018-06-15T00:27:41.355Z,99.20
2018-06-15T00:30:09.784Z,99.10
2018-06-15T00:32:38.291Z,99.50
2018-06-15T00:35:06.758Z,99.40
2018-06-15T00:37:35.181Z,99.50
2018-06-15T00:40:03.703Z,99.70
2018-06-15T00:42:32.146Z,99.50
2018-06-15T00:45:00.573Z,99.60
2018-06-15T00:47:29.023Z,99.80
2018-06-15T00:49:57.479Z,99.90
2018-06-15T00:52:25.907Z,99.90
2018-06-15T00:54:54.343Z,99.90
2018-06-15T00:57:34.003Z,99.90
2018-06-15T01:00:02.464Z,99.90
2018-06-15T01:02:30.879Z,99.90
2018-06-15T01:07:27.419Z,99.90
2018-06-15T01:09:55.851Z,99.90
2018-06-15T01:12:24.263Z,99.90
2018-06-15T01:14:52.706Z,99.90
2018-06-15T01:17:21.122Z,99.90
2018-06-15T01:19:49.551Z,99.90
2018-06-15T01:22:17.962Z,99.90
2018-06-15T01:24:46.391Z,99.90
2018-06-15T01:27:14.817Z,99.90
2018-06-15T01:29:43.243Z,99.90
2018-06-15T01:34:39.772Z,99.90
2018-06-15T01:37:08.227Z,99.90
2018-06-15T01:39:36.654Z,99.90
2018-06-15T01:42:05.059Z,99.90
2018-06-15T01:44:33.494Z,99.90
2018-06-15T01:47:01.899Z,99.90
2018-06-15T01:49:30.325Z,99.90
2018-06-15T01:51:58.760Z,99.90
2018-06-15T01:56:55.307Z,99.90
2018-06-15T01:59:23.743Z,99.90
2018-06-15T02:01:52.168Z,99.90
2018-06-15T02:04:20.606Z,99.90
2018-06-15T02:06:49.046Z,99.90
2018-06-15T02:09:17.467Z,99.90
2018-06-15T02:11:45.941Z,99.90
2018-06-15T02:14:14.359Z,99.90
2018-06-15T02:16:42.784Z,99.90
2018-06-15T02:19:11.253Z,99.90
2018-06-15T02:24:07.786Z,99.90
2018-06-15T02:26:36.190Z,99.90
2018-06-15T02:29:04.643Z,99.90
2018-06-15T02:31:33.067Z,99.90
2018-06-15T02:34:01.527Z,99.90
2018-06-15T02:36:30.021Z,99.90
2018-06-15T02:38:58.479Z,99.90
2018-06-15T02:41:26.934Z,99.90
2018-06-15T02:43:55.412Z,99.90
2018-06-15T02:46:23.868Z,99.90
2018-06-15T02:48:52.695Z,99.90
2018-06-15T03:01:13.888Z,99.90
2018-06-15T03:06:10.500Z,99.90
2018-06-15T03:08:38.952Z,99.90
2018-06-15T03:11:07.452Z,99.90
2018-06-15T03:13:36.659Z,99.90
2018-06-15T03:16:05.132Z,99.90
2018-06-15T03:18:33.612Z,99.90
2018-06-15T03:21:02.195Z,99.90
2018-06-15T03:23:30.675Z,99.90
2018-06-15T03:25:59.264Z,99.90
2018-06-15T03:28:27.740Z,99.90
2018-06-15T03:30:56.204Z,99.90
2018-06-15T03:33:24.672Z,99.90
2018-06-15T03:35:53.155Z,99.90
2018-06-15T03:40:49.779Z,99.90
2018-06-15T03:43:18.272Z,99.90
2018-06-15T03:48:14.940Z,99.90
2018-06-15T03:53:11.577Z,99.90
2018-06-15T03:55:40.042Z,99.90
2018-06-15T03:58:08.527Z,99.90
2018-06-15T04:00:37.020Z,99.90
2018-06-15T04:03:05.651Z,99.90
2018-06-15T04:05:34.129Z,99.90
2018-06-15T04:08:02.608Z,99.90
2018-06-15T04:10:31.096Z,99.90
2018-06-15T04:12:59.603Z,99.90
2018-06-15T04:15:28.080Z,99.90
2018-06-15T04:18:01.825Z,99.90
2018-06-15T04:20:30.324Z,99.90
2018-06-15T04:22:59.107Z,99.90
2018-06-15T04:27:56.300Z,99.90
2018-06-15T04:30:24.781Z,99.90
2018-06-15T04:32:53.327Z,99.90
2018-06-15T04:37:49.964Z,99.90
2018-06-15T04:40:18.436Z,99.90
2018-06-15T04:42:46.959Z,99.90
2018-06-15T04:45:15.436Z,99.90
2018-06-15T04:50:12.063Z,99.90
2018-06-15T04:52:40.521Z,99.90
2018-06-15T04:55:08.996Z,99.90
2018-06-15T04:57:37.467Z,99.90
2018-06-15T05:00:06.004Z,99.90
2018-06-15T05:07:30.807Z,99.90
2018-06-15T05:09:59.304Z,99.90
2018-06-15T05:12:27.732Z,99.90
2018-06-15T05:14:56.220Z,99.90
2018-06-15T05:17:24.676Z,99.90
2018-06-15T05:24:49.491Z,99.90
2018-06-15T05:27:17.967Z,99.90
2018-06-15T05:29:46.428Z,99.90
2018-06-15T05:32:14.914Z,99.90
2018-06-15T05:34:43.384Z,99.90
2018-06-15T05:37:11.902Z,99.90
2018-06-15T05:42:08.516Z,99.90
2018-06-15T05:44:36.987Z,99.90
2018-06-15T05:47:05.499Z,99.90
2018-06-15T05:49:33.995Z,99.90
2018-06-15T05:54:30.618Z,99.90
2018-06-15T05:56:59.092Z,99.90
2018-06-15T05:59:27.559Z,99.90
2018-06-15T06:01:56.056Z,99.90
2018-06-15T06:04:24.515Z,99.90
2018-06-15T06:06:53.000Z,99.90
2018-06-15T06:09:21.479Z,99.90
2018-06-15T06:11:49.962Z,99.90
2018-06-15T06:14:18.424Z,99.90
2018-06-15T06:16:46.888Z,99.90
2018-06-15T06:19:15.363Z,99.90
2018-06-15T06:24:12.000Z,99.90
2018-06-15T06:26:40.455Z,99.90
2018-06-15T06:29:08.912Z,99.90
2018-06-15T06:31:37.393Z,99.90
2018-06-15T06:34:05.895Z,99.80
2018-06-15T06:36:34.404Z,99.60
2018-06-15T06:39:02.908Z,99.60
2018-06-15T06:43:59.583Z,99.40
2018-06-15T06:46:28.066Z,99.70
2018-06-15T06:48:56.760Z,99.80
2018-06-15T06:51:25.215Z,99.70
2018-06-15T06:53:53.739Z,99.70
2018-06-15T06:56:22.220Z,99.90
2018-06-15T06:58:50.704Z,99.90
2018-06-15T07:01:19.173Z,99.70
2018-06-15T07:03:47.652Z,99.60
2018-06-15T07:06:16.191Z,99.50
2018-06-15T07:08:44.682Z,99.40
2018-06-15T07:16:09.488Z,98.90
2018-06-15T07:18:38.068Z,99.10
2018-06-15T07:21:06.610Z,99.30
2018-06-15T07:23:35.141Z,99.40
2018-06-15T07:26:03.852Z,99.00
2018-06-15T07:31:01.188Z,98.30
2018-06-15T07:33:29.725Z,98.30
2018-06-15T07:35:58.152Z,98.20
2018-06-15T07:38:26.684Z,98.30
2018-06-15T07:40:55.144Z,97.40
2018-06-15T07:45:51.772Z,96.90
2018-06-15T07:48:20.248Z,96.80
2018-06-15T07:50:48.732Z,96.20
2018-06-15T07:53:17.200Z,96.00
2018-06-15T07:55:45.695Z,95.50
2018-06-15T07:58:14.160Z,95.20
2018-06-15T08:00:42.649Z,94.80
2018-06-15T08:03:11.191Z,94.80
2018-06-15T08:05:39.647Z,94.50
2018-06-15T08:08:08.184Z,94.40
2018-06-15T08:10:36.635Z,94.80
2018-06-15T08:13:05.143Z,94.60
2018-06-15T08:15:33.600Z,94.60
2018-06-15T08:18:02.076Z,94.60
2018-06-15T08:20:30.536Z,94.00
2018-06-15T08:25:27.157Z,94.40
2018-06-15T08:27:55.607Z,94.80
2018-06-15T08:30:24.079Z,94.00
2018-06-15T08:32:52.548Z,94.30
2018-06-15T08:35:21.028Z,93.80
2018-06-15T08:37:49.484Z,93.80
2018-06-15T08:40:18.008Z,93.80
2018-06-15T08:42:46.460Z,93.70
2018-06-15T08:45:14.924Z,94.00
2018-06-15T08:47:43.419Z,91.50
2018-06-15T08:50:11.927Z,91.10
2018-06-15T08:52:40.421Z,91.40
2018-06-15T08:55:08.880Z,89.60
2018-06-15T09:05:01.829Z,87.50
2018-06-15T09:07:30.299Z,83.50
2018-06-15T09:09:58.784Z,83.50
2018-06-15T09:12:27.236Z,83.60
2018-06-15T09:14:55.704Z,82.80
2018-06-15T09:17:24.171Z,83.60
2018-06-15T09:22:20.856Z,83.60
2018-06-15T09:24:49.432Z,84.50
2018-06-15T09:27:17.912Z,82.10
2018-06-15T09:29:46.381Z,83.40
2018-06-15T09:34:42.980Z,80.80
2018-06-15T09:37:11.459Z,80.10
2018-06-15T09:39:39.916Z,82.40
2018-06-15T09:42:08.378Z,79.10
2018-06-15T09:47:05.004Z,76.50
2018-06-15T09:49:33.488Z,76.60
2018-06-15T09:52:01.952Z,75.90
2018-06-15T09:54:30.435Z,76.30
2018-06-15T09:56:59.164Z,73.40
2018-06-15T10:01:55.812Z,73.40
2018-06-15T10:04:24.275Z,73.00
2018-06-15T10:06:52.764Z,72.90
2018-06-15T10:09:21.219Z,72.40
2018-06-15T10:11:49.696Z,71.90
2018-06-15T10:14:18.156Z,71.60
2018-06-15T10:16:46.682Z,71.70
2018-06-15T10:19:15.116Z,73.50
2018-06-15T10:21:43.611Z,69.60
2018-06-15T10:24:12.075Z,71.20
2018-06-15T10:26:40.534Z,69.10
2018-06-15T10:31:37.408Z,68.10
2018-06-15T10:34:06.240Z,68.40
2018-06-15T10:36:34.745Z,67.20
2018-06-15T10:39:03.416Z,66.10
2018-06-15T10:41:31.864Z,68.20
2018-06-15T10:44:00.345Z,68.60
2018-06-15T10:46:28.796Z,66.90
2018-06-15T10:51:25.411Z,68.60
2018-06-15T10:53:53.904Z,68.40
2018-06-15T10:56:22.418Z,69.10
2018-06-15T10:58:50.874Z,69.80
2018-06-15T11:01:19.335Z,70.80
2018-06-15T11:03:47.815Z,70.60
2018-06-15T11:06:16.264Z,71.30
2018-06-15T11:08:44.772Z,71.10
2018-06-15T11:11:13.252Z,72.00
2018-06-15T11:13:41.719Z,72.00
2018-06-15T11:16:10.204Z,72.20
2018-06-15T11:18:38.659Z,73.70
2018-06-15T11:21:07.160Z,73.30
2018-06-15T11:23:35.671Z,74.10
2018-06-15T11:26:04.160Z,74.30
2018-06-15T11:28:32.612Z,74.70
2018-06-15T11:31:01.147Z,74.80
2018-06-15T11:33:29.580Z,74.90
2018-06-15T11:35:58.039Z,74.60
2018-06-15T11:38:26.524Z,76.30
2018-06-15T11:40:55.011Z,75.60
2018-06-15T11:43:23.502Z,74.60
2018-06-15T11:45:51.951Z,74.40
2018-06-15T11:48:20.430Z,76.10
2018-06-15T11:50:48.895Z,75.60
2018-06-15T11:55:45.523Z,74.80
2018-06-15T11:58:13.980Z,75.60
2018-06-15T12:00:42.467Z,75.30
2018-06-15T12:03:10.928Z,74.50
2018-06-15T12:05:39.420Z,73.90
2018-06-15T12:08:07.987Z,71.60
2018-06-15T12:10:36.456Z,72.50
2018-06-15T12:13:04.908Z,72.20
2018-06-15T12:15:33.363Z,70.90
2018-06-15T12:18:01.841Z,67.90
2018-06-15T12:20:30.319Z,65.10
2018-06-15T12:22:58.807Z,63.20
2018-06-15T12:25:27.276Z,61.70
2018-06-15T12:27:55.754Z,63.50
2018-06-15T12:30:24.222Z,63.90
2018-06-15T12:32:52.676Z,63.00
2018-06-15T12:37:49.299Z,54.60
2018-06-15T12:40:17.773Z,51.80
2018-06-15T12:42:46.344Z,50.60
2018-06-15T12:45:14.851Z,47.50
2018-06-15T12:47:43.307Z,47.40
2018-06-15T12:50:11.808Z,41.20
2018-06-15T12:52:40.279Z,42.00
2018-06-15T12:55:08.751Z,42.10
2018-06-15T12:57:37.306Z,41.20
2018-06-15T13:00:05.839Z,38.50
2018-06-15T13:02:34.576Z,36.60
2018-06-15T13:05:03.052Z,35.50
2018-06-15T13:07:31.495Z,33.80
2018-06-15T13:10:00.624Z,34.70
2018-06-15T13:12:29.799Z,35.30
2018-06-15T13:14:58.393Z,37.80
2018-06-15T13:17:26.847Z,39.30
2018-06-15T13:19:55.347Z,41.40
2018-06-15T13:22:23.804Z,43.10
2018-06-15T13:24:52.316Z,42.60
2018-06-15T13:29:48.920Z,45.60
2018-06-15T13:32:17.408Z,46.50
2018-06-15T13:34:45.876Z,47.50
2018-06-15T13:37:14.348Z,48.30
2018-06-15T13:39:42.852Z,49.60
2018-06-15T13:42:11.309Z,49.90
2018-06-15T13:44:39.762Z,48.80
2018-06-15T13:49:36.395Z,50.20
2018-06-15T13:52:04.856Z,50.90
2018-06-15T13:54:33.335Z,50.80
2018-06-15T13:57:01.843Z,51.60
2018-06-15T13:59:30.288Z,52.00
2018-06-15T14:01:58.748Z,52.50
2018-06-15T14:04:27.266Z,52.10
2018-06-15T14:06:55.812Z,51.40
2018-06-15T14:11:52.364Z,53.80
2018-06-15T14:14:20.832Z,53.40
2018-06-15T14:16:49.304Z,53.10
2018-06-15T14:19:17.744Z,53.50
2018-06-15T14:21:46.228Z,54.30
2018-06-15T14:24:14.676Z,53.70
2018-06-15T14:26:43.164Z,54.10
2018-06-15T14:29:11.628Z,55.80
2018-06-15T14:31:40.124Z,56.30
2018-06-15T14:34:08.608Z,57.20
2018-06-15T14:36:37.093Z,57.80
2018-06-15T14:39:07.673Z,57.10
2018-06-15T14:44:04.328Z,58.00
2018-06-15T14:49:00.949Z,58.00
2018-06-15T14:51:29.592Z,58.20
2018-06-15T14:53:58.072Z,58.20
2018-06-15T14:58:54.679Z,58.80
2018-06-15T15:01:23.147Z,58.90
2018-06-15T15:03:51.603Z,59.60
2018-06-15T15:06:20.080Z,59.70
2018-06-15T15:08:48.540Z,59.50
2018-06-15T15:13:45.140Z,60.80
2018-06-15T15:16:13.628Z,60.00
2018-06-15T15:18:42.084Z,60.30
2018-06-15T15:21:10.560Z,61.60
2018-06-15T15:23:39.040Z,61.60
2018-06-15T15:26:07.498Z,62.80
2018-06-15T15:28:35.984Z,61.90
2018-06-15T15:33:32.608Z,62.40
2018-06-15T15:36:01.120Z,63.00
2018-06-15T15:41:14.984Z,63.10
2018-06-15T15:43:43.487Z,63.80
2018-06-15T15:46:11.924Z,64.20
2018-06-15T15:48:40.345Z,64.30
2018-06-15T15:51:08.783Z,64.50
2018-06-15T15:53:37.209Z,65.00
2018-06-15T15:56:05.692Z,64.70
2018-06-15T15:58:34.116Z,64.60
2018-06-15T16:01:02.559Z,65.00
2018-06-15T16:03:31.004Z,65.00
2018-06-15T16:05:59.456Z,64.50
2018-06-15T16:08:27.880Z,64.70
2018-06-15T16:10:56.308Z,65.20
2018-06-15T16:13:24.888Z,64.70
2018-06-15T16:15:53.308Z,64.60
2018-06-15T16:18:21.748Z,64.50
2018-06-15T16:20:50.173Z,63.50
2018-06-15T16:23:18.739Z,63.60
2018-06-15T16:25:47.168Z,63.20
2018-06-15T16:28:15.592Z,62.20
2018-06-15T16:30:44.039Z,60.60
2018-06-15T16:33:12.476Z,59.40
2018-06-15T16:38:09.023Z,58.90
2018-06-15T16:43:05.891Z,58.90
2018-06-15T16:45:34.359Z,59.60
2018-06-15T16:48:02.787Z,59.30
2018-06-15T16:50:31.237Z,59.30
2018-06-15T16:55:27.788Z,60.60
2018-06-15T16:57:56.240Z,60.90
2018-06-15T17:00:24.656Z,60.10
2018-06-15T17:02:53.156Z,60.10
2018-06-15T17:05:21.582Z,60.80
2018-06-15T17:07:50.044Z,61.00
2018-06-15T17:10:18.551Z,61.00
2018-06-15T17:12:47.032Z,61.50
2018-06-15T17:15:15.451Z,61.70
2018-06-15T17:17:43.873Z,62.10
2018-06-15T17:20:12.320Z,63.00
2018-06-15T17:22:40.747Z,61.90
2018-06-15T17:25:09.211Z,62.40
2018-06-15T17:27:37.632Z,63.60
2018-06-15T17:35:02.387Z,64.90
2018-06-15T17:37:30.824Z,65.60
2018-06-15T17:39:59.244Z,66.90
2018-06-15T17:42:27.691Z,67.30
2018-06-15T17:44:56.116Z,67.60
2018-06-15T17:47:24.568Z,68.10
2018-06-15T17:52:21.116Z,68.80
2018-06-15T17:57:17.656Z,69.10
2018-06-15T17:59:46.123Z,69.10
2018-06-15T18:02:14.548Z,69.90
2018-06-15T18:04:43.000Z,69.40
2018-06-15T18:07:11.423Z,69.30
2018-06-15T18:09:39.868Z,69.60
2018-06-15T18:14:36.487Z,69.70
2018-06-15T18:17:04.968Z,69.50
2018-06-15T18:19:33.395Z,69.70
2018-06-15T18:24:29.968Z,71.10
2018-06-15T18:26:58.424Z,71.90
2018-06-15T18:31:54.980Z,73.20
2018-06-15T18:36:51.535Z,74.30
2018-06-15T18:41:48.108Z,75.40
2018-06-15T18:44:16.556Z,76.00
2018-06-15T18:46:44.975Z,76.90
2018-06-15T18:49:14.291Z,77.60
2018-06-15T18:51:42.720Z,78.60
2018-06-15T18:56:39.295Z,80.10
2018-06-15T18:59:07.715Z,80.80
2018-06-15T19:01:36.175Z,82.20
2018-06-15T19:04:04.815Z,82.80
2018-06-15T19:06:33.278Z,82.70
2018-06-15T19:09:01.708Z,83.20
2018-06-15T19:11:30.412Z,83.80
2018-06-15T19:13:58.886Z,84.30
2018-06-15T19:16:27.321Z,84.30
2018-06-15T19:18:55.759Z,84.60
2018-06-15T19:21:24.276Z,85.30
2018-06-15T19:23:52.732Z,85.90
2018-06-15T19:26:21.152Z,86.40
2018-06-15T19:28:49.646Z,86.90
2018-06-15T19:31:18.063Z,87.40
2018-06-15T19:33:46.524Z,88.10
2018-06-15T19:36:14.951Z,88.60
2018-06-15T19:38:43.383Z,89.60
2018-06-15T19:41:11.848Z,89.90
2018-06-15T19:43:40.271Z,90.20
2018-06-15T19:46:08.726Z,90.50
2018-06-15T19:48:37.148Z,90.80
2018-06-15T19:51:05.651Z,91.20
2018-06-15T19:53:34.080Z,91.50
2018-06-15T19:56:02.539Z,91.90
2018-06-15T19:58:30.975Z,92.10
2018-06-15T20:00:59.444Z,92.30
2018-06-15T20:03:27.884Z,92.60
2018-06-15T20:05:56.439Z,93.00
2018-06-15T20:08:24.891Z,93.30
2018-06-15T20:10:53.355Z,93.70
2018-06-15T20:13:21.787Z,94.00
2018-06-15T20:15:50.215Z,94.30
2018-06-15T20:18:18.668Z,94.50
2018-06-15T20:23:15.239Z,95.10
2018-06-15T20:25:43.668Z,95.30
2018-06-15T20:28:12.119Z,95.60
2018-06-15T20:30:40.569Z,95.70
2018-06-15T20:33:09.031Z,96.10
2018-06-15T20:35:37.453Z,96.30
2018-06-15T20:38:05.999Z,96.50
2018-06-15T20:43:02.568Z,97.00
2018-06-15T20:45:31.048Z,97.20
2018-06-15T20:47:59.460Z,97.30
2018-06-15T20:50:27.908Z,97.30
2018-06-15T20:52:56.335Z,97.50
2018-06-15T20:55:24.788Z,97.60
2018-06-15T20:57:53.200Z,97.90
2018-06-15T21:00:21.664Z,98.00
2018-06-15T21:02:50.092Z,98.10
2018-06-15T21:05:18.547Z,98.40
2018-06-15T21:07:47.014Z,98.40
2018-06-15T21:10:15.448Z,98.70
2018-06-15T21:15:12.020Z,98.90
2018-06-15T21:17:40.471Z,99.10
2018-06-15T21:22:37.080Z,99.70
2018-06-15T21:25:05.576Z,99.40
2018-06-15T21:27:34.005Z,99.60
2018-06-15T21:30:02.464Z,99.20
2018-06-15T21:34:59.128Z,99.20
2018-06-15T21:39:55.687Z,99.30
2018-06-15T21:42:24.125Z,99.40
2018-06-15T21:44:52.592Z,99.60
2018-06-15T21:47:21.019Z,99.80
2018-06-15T21:52:17.592Z,99.90
2018-06-15T21:54:46.024Z,99.90
2018-06-15T21:57:14.488Z,99.90
2018-06-15T21:59:42.948Z,99.90
2018-06-15T22:02:11.400Z,99.90
2018-06-15T22:07:07.947Z,99.90
2018-06-15T22:12:04.596Z,99.90
2018-06-15T22:14:33.036Z,99.90
2018-06-15T22:17:01.484Z,99.90
2018-06-15T22:19:29.958Z,99.90
2018-06-15T22:24:26.524Z,99.90
2018-06-15T22:26:54.956Z,99.90
2018-06-15T22:29:23.384Z,99.90
2018-06-15T22:31:51.835Z,99.90
2018-06-15T22:34:20.267Z,99.90
2018-06-15T22:36:48.712Z,99.90
2018-06-15T22:39:17.135Z,99.90
2018-06-15T22:41:45.588Z,99.90
2018-06-15T22:44:14.346Z,99.90
2018-06-15T22:49:12.119Z,99.90
2018-06-15T22:51:41.325Z,99.90
2018-06-15T22:54:10.024Z,99.90
2018-06-15T22:59:06.663Z,99.90
2018-06-15T23:01:35.096Z,99.90
2018-06-15T23:04:03.575Z,99.90
2018-06-15T23:06:32.053Z,99.90
2018-06-15T23:09:07.020Z,99.90
2018-06-15T23:11:35.464Z,99.90
2018-06-15T23:14:03.995Z,99.90
2018-06-15T23:16:32.431Z,99.90
2018-06-15T23:19:00.891Z,99.90
2018-06-15T23:21:29.311Z,99.90
2018-06-15T23:23:57.759Z,99.90
2018-06-15T23:26:26.223Z,99.90
2018-06-15T23:31:22.988Z,99.90
2018-06-15T23:33:51.419Z,99.90
2018-06-15T23:36:19.881Z,99.90
2018-06-15T23:38:48.307Z,99.90
2018-06-15T23:43:44.941Z,99.90
2018-06-15T23:46:13.484Z,99.90
2018-06-15T23:48:41.944Z,99.90
2018-06-15T23:53:38.543Z,99.90
2018-06-15T23:56:07.054Z,99.90
2018-06-15T23:58:35.567Z,99.90
